sensor_id;sensor_type;location;lat;lon;timestamp;temperature;humidity
1988;DHT22;12775;46.994;15.498;2022-07-12T00:02:17;18.20;83.50
1988;DHT22;12775;46.994;15.498;2022-07-12T00:04:44;18.20;84.90
1988;DHT22;12775;46.994;15.498;2022-07-12T00:07:10;18.20;85.60
1988;DHT22;12775;46.994;15.498;2022-07-12T00:09:37;18.20;86.20
1988;DHT22;12775;46.994;15.498;2022-07-12T00:12:04;18.20;86.00
1988;DHT22;12775;46.994;15.498;2022-07-12T00:14:31;18.20;85.20
1988;DHT22;12775;46.994;15.498;2022-07-12T00:16:57;18.20;84.20
1988;DHT22;12775;46.994;15.498;2022-07-12T00:19:24;18.20;83.90
1988;DHT22;12775;46.994;15.498;2022-07-12T00:21:50;18.20;83.10
1988;DHT22;12775;46.994;15.498;2022-07-12T00:24:17;18.20;82.90
1988;DHT22;12775;46.994;15.498;2022-07-12T00:26:43;18.20;82.50
1988;DHT22;12775;46.994;15.498;2022-07-12T00:29:10;18.20;84.00
1988;DHT22;12775;46.994;15.498;2022-07-12T00:31:37;18.20;83.70
1988;DHT22;12775;46.994;15.498;2022-07-12T00:34:03;18.30;82.70
1988;DHT22;12775;46.994;15.498;2022-07-12T00:36:30;18.30;84.60
1988;DHT22;12775;46.994;15.498;2022-07-12T00:38:56;18.30;84.70
1988;DHT22;12775;46.994;15.498;2022-07-12T00:41:23;18.30;83.90
1988;DHT22;12775;46.994;15.498;2022-07-12T00:43:50;18.30;86.70
1988;DHT22;12775;46.994;15.498;2022-07-12T00:46:17;18.30;89.00
1988;DHT22;12775;46.994;15.498;2022-07-12T00:48:43;18.30;86.70
1988;DHT22;12775;46.994;15.498;2022-07-12T00:51:09;18.30;87.40
1988;DHT22;12775;46.994;15.498;2022-07-12T00:53:36;18.40;87.20
1988;DHT22;12775;46.994;15.498;2022-07-12T00:56:03;18.40;89.50
1988;DHT22;12775;46.994;15.498;2022-07-12T00:58:30;18.40;90.30
1988;DHT22;12775;46.994;15.498;2022-07-12T01:00:57;18.50;89.20
1988;DHT22;12775;46.994;15.498;2022-07-12T01:03:24;18.40;89.10
1988;DHT22;12775;46.994;15.498;2022-07-12T01:05:50;18.40;87.60
1988;DHT22;12775;46.994;15.498;2022-07-12T01:08:17;18.50;87.40
1988;DHT22;12775;46.994;15.498;2022-07-12T01:10:44;18.50;88.20
1988;DHT22;12775;46.994;15.498;2022-07-12T01:13:11;18.50;89.20
1988;DHT22;12775;46.994;15.498;2022-07-12T01:15:37;18.60;87.90
1988;DHT22;12775;46.994;15.498;2022-07-12T01:18:04;18.60;86.70
1988;DHT22;12775;46.994;15.498;2022-07-12T01:20:31;18.60;86.70
1988;DHT22;12775;46.994;15.498;2022-07-12T01:22:58;18.60;85.60
1988;DHT22;12775;46.994;15.498;2022-07-12T01:25:24;18.60;85.10
1988;DHT22;12775;46.994;15.498;2022-07-12T01:27:51;18.70;86.60
1988;DHT22;12775;46.994;15.498;2022-07-12T01:30:19;18.70;87.40
1988;DHT22;12775;46.994;15.498;2022-07-12T01:32:45;18.70;86.50
1988;DHT22;12775;46.994;15.498;2022-07-12T01:35:12;18.70;85.70
1988;DHT22;12775;46.994;15.498;2022-07-12T01:37:41;18.70;85.20
1988;DHT22;12775;46.994;15.498;2022-07-12T01:40:08;18.70;85.50
1988;DHT22;12775;46.994;15.498;2022-07-12T01:42:35;18.80;86.80
1988;DHT22;12775;46.994;15.498;2022-07-12T01:45:02;18.80;86.80
1988;DHT22;12775;46.994;15.498;2022-07-12T01:47:30;18.80;86.10
1988;DHT22;12775;46.994;15.498;2022-07-12T01:49:57;18.80;85.20
1988;DHT22;12775;46.994;15.498;2022-07-12T01:52:23;18.80;86.10
1988;DHT22;12775;46.994;15.498;2022-07-12T01:54:50;18.80;86.70
1988;DHT22;12775;46.994;15.498;2022-07-12T01:57:16;18.90;86.80
1988;DHT22;12775;46.994;15.498;2022-07-12T01:59:44;18.90;86.50
1988;DHT22;12775;46.994;15.498;2022-07-12T02:02:12;18.90;87.80
1988;DHT22;12775;46.994;15.498;2022-07-12T02:04:38;18.90;90.70
1988;DHT22;12775;46.994;15.498;2022-07-12T02:07:05;18.90;90.30
1988;DHT22;12775;46.994;15.498;2022-07-12T02:09:32;18.90;90.30
1988;DHT22;12775;46.994;15.498;2022-07-12T02:12:00;18.90;90.70
1988;DHT22;12775;46.994;15.498;2022-07-12T02:14:26;18.90;90.10
1988;DHT22;12775;46.994;15.498;2022-07-12T02:16:52;18.90;90.50
1988;DHT22;12775;46.994;15.498;2022-07-12T02:19:19;18.90;90.70
1988;DHT22;12775;46.994;15.498;2022-07-12T02:21:45;18.90;90.70
1988;DHT22;12775;46.994;15.498;2022-07-12T02:24:12;18.80;89.30
1988;DHT22;12775;46.994;15.498;2022-07-12T02:26:39;18.80;89.60
1988;DHT22;12775;46.994;15.498;2022-07-12T02:29:05;18.80;89.60
1988;DHT22;12775;46.994;15.498;2022-07-12T02:31:32;18.90;89.60
1988;DHT22;12775;46.994;15.498;2022-07-12T02:33:58;18.90;89.40
1988;DHT22;12775;46.994;15.498;2022-07-12T02:36:25;18.90;88.20
1988;DHT22;12775;46.994;15.498;2022-07-12T02:38:52;18.90;87.10
1988;DHT22;12775;46.994;15.498;2022-07-12T02:41:18;18.90;88.00
1988;DHT22;12775;46.994;15.498;2022-07-12T02:43:45;18.90;86.90
1988;DHT22;12775;46.994;15.498;2022-07-12T02:46:12;18.90;88.20
1988;DHT22;12775;46.994;15.498;2022-07-12T02:48:38;18.90;87.50
1988;DHT22;12775;46.994;15.498;2022-07-12T02:51:05;18.90;86.80
1988;DHT22;12775;46.994;15.498;2022-07-12T02:53:31;18.90;87.90
1988;DHT22;12775;46.994;15.498;2022-07-12T02:55:58;18.90;89.00
1988;DHT22;12775;46.994;15.498;2022-07-12T02:58:24;18.90;87.70
1988;DHT22;12775;46.994;15.498;2022-07-12T03:00:51;19.00;88.10
1988;DHT22;12775;46.994;15.498;2022-07-12T03:03:18;18.90;88.60
1988;DHT22;12775;46.994;15.498;2022-07-12T03:05:44;19.00;90.00
1988;DHT22;12775;46.994;15.498;2022-07-12T03:08:11;19.00;90.30
1988;DHT22;12775;46.994;15.498;2022-07-12T03:10:38;19.00;90.50
1988;DHT22;12775;46.994;15.498;2022-07-12T03:13:04;19.00;90.30
1988;DHT22;12775;46.994;15.498;2022-07-12T03:15:31;19.00;90.30
1988;DHT22;12775;46.994;15.498;2022-07-12T03:17:57;19.00;89.60
1988;DHT22;12775;46.994;15.498;2022-07-12T03:20:24;18.90;89.00
1988;DHT22;12775;46.994;15.498;2022-07-12T03:22:51;19.00;89.00
1988;DHT22;12775;46.994;15.498;2022-07-12T03:25:18;19.00;89.40
1988;DHT22;12775;46.994;15.498;2022-07-12T03:27:45;19.00;89.50
1988;DHT22;12775;46.994;15.498;2022-07-12T03:30:12;19.00;89.90
1988;DHT22;12775;46.994;15.498;2022-07-12T03:32:38;19.00;90.40
1988;DHT22;12775;46.994;15.498;2022-07-12T03:35:05;19.00;91.10
1988;DHT22;12775;46.994;15.498;2022-07-12T03:37:42;19.10;91.40
1988;DHT22;12775;46.994;15.498;2022-07-12T03:40:09;19.10;91.80
1988;DHT22;12775;46.994;15.498;2022-07-12T03:42:35;19.10;92.00
1988;DHT22;12775;46.994;15.498;2022-07-12T03:45:02;19.10;91.30
1988;DHT22;12775;46.994;15.498;2022-07-12T03:47:29;19.00;90.90
1988;DHT22;12775;46.994;15.498;2022-07-12T03:49:56;19.10;91.00
1988;DHT22;12775;46.994;15.498;2022-07-12T03:52:23;19.00;92.30
1988;DHT22;12775;46.994;15.498;2022-07-12T03:54:50;19.00;92.30
1988;DHT22;12775;46.994;15.498;2022-07-12T03:57:18;19.00;91.90
1988;DHT22;12775;46.994;15.498;2022-07-12T03:59:44;19.00;91.50
1988;DHT22;12775;46.994;15.498;2022-07-12T04:02:11;19.10;91.60
1988;DHT22;12775;46.994;15.498;2022-07-12T04:04:38;19.00;92.20
1988;DHT22;12775;46.994;15.498;2022-07-12T04:07:04;19.00;92.10
1988;DHT22;12775;46.994;15.498;2022-07-12T04:09:31;19.00;92.60
1988;DHT22;12775;46.994;15.498;2022-07-12T04:11:57;19.00;92.70
1988;DHT22;12775;46.994;15.498;2022-07-12T04:14:24;19.00;92.80
1988;DHT22;12775;46.994;15.498;2022-07-12T04:16:50;19.00;92.80
1988;DHT22;12775;46.994;15.498;2022-07-12T04:19:17;19.00;93.30
1988;DHT22;12775;46.994;15.498;2022-07-12T04:21:44;19.00;93.50
1988;DHT22;12775;46.994;15.498;2022-07-12T04:24:10;19.00;93.80
1988;DHT22;12775;46.994;15.498;2022-07-12T04:26:37;18.90;93.70
1988;DHT22;12775;46.994;15.498;2022-07-12T04:29:04;18.90;93.90
1988;DHT22;12775;46.994;15.498;2022-07-12T04:31:30;18.90;94.50
1988;DHT22;12775;46.994;15.498;2022-07-12T04:33:57;18.90;94.30
1988;DHT22;12775;46.994;15.498;2022-07-12T04:36:23;18.90;93.90
1988;DHT22;12775;46.994;15.498;2022-07-12T04:38:50;18.80;93.40
1988;DHT22;12775;46.994;15.498;2022-07-12T04:41:16;18.80;93.40
1988;DHT22;12775;46.994;15.498;2022-07-12T04:43:45;18.80;94.30
1988;DHT22;12775;46.994;15.498;2022-07-12T04:46:12;18.80;94.30
1988;DHT22;12775;46.994;15.498;2022-07-12T04:48:39;18.80;93.70
1988;DHT22;12775;46.994;15.498;2022-07-12T04:51:06;18.80;93.20
1988;DHT22;12775;46.994;15.498;2022-07-12T04:53:32;18.80;93.60
1988;DHT22;12775;46.994;15.498;2022-07-12T04:55:59;18.80;94.40
1988;DHT22;12775;46.994;15.498;2022-07-12T04:58:26;18.80;94.90
1988;DHT22;12775;46.994;15.498;2022-07-12T05:00:53;18.80;94.70
1988;DHT22;12775;46.994;15.498;2022-07-12T05:03:20;18.80;95.10
1988;DHT22;12775;46.994;15.498;2022-07-12T05:05:48;18.80;95.50
1988;DHT22;12775;46.994;15.498;2022-07-12T05:08:15;18.80;96.10
1988;DHT22;12775;46.994;15.498;2022-07-12T05:10:42;18.80;95.50
1988;DHT22;12775;46.994;15.498;2022-07-12T05:13:11;18.80;94.80
1988;DHT22;12775;46.994;15.498;2022-07-12T05:15:38;18.80;96.30
1988;DHT22;12775;46.994;15.498;2022-07-12T05:18:06;18.80;95.70
1988;DHT22;12775;46.994;15.498;2022-07-12T05:20:33;18.80;95.20
1988;DHT22;12775;46.994;15.498;2022-07-12T05:23:00;18.80;94.80
1988;DHT22;12775;46.994;15.498;2022-07-12T05:25:28;18.80;95.00
1988;DHT22;12775;46.994;15.498;2022-07-12T05:27:55;18.80;96.00
1988;DHT22;12775;46.994;15.498;2022-07-12T05:30:22;18.80;95.20
1988;DHT22;12775;46.994;15.498;2022-07-12T05:32:50;18.90;95.30
1988;DHT22;12775;46.994;15.498;2022-07-12T05:35:17;18.90;96.60
1988;DHT22;12775;46.994;15.498;2022-07-12T05:37:45;19.00;97.40
1988;DHT22;12775;46.994;15.498;2022-07-12T05:40:12;19.00;96.70
1988;DHT22;12775;46.994;15.498;2022-07-12T05:42:39;18.90;95.80
1988;DHT22;12775;46.994;15.498;2022-07-12T05:45:07;18.80;96.20
1988;DHT22;12775;46.994;15.498;2022-07-12T05:47:34;18.80;96.20
1988;DHT22;12775;46.994;15.498;2022-07-12T05:50:01;19.00;96.20
1988;DHT22;12775;46.994;15.498;2022-07-12T05:52:28;19.00;96.50
1988;DHT22;12775;46.994;15.498;2022-07-12T05:55:00;19.00;96.50
1988;DHT22;12775;46.994;15.498;2022-07-12T05:57:27;19.10;96.40
1988;DHT22;12775;46.994;15.498;2022-07-12T05:59:54;19.00;96.40
1988;DHT22;12775;46.994;15.498;2022-07-12T06:02:21;19.00;95.30
1988;DHT22;12775;46.994;15.498;2022-07-12T06:04:48;19.10;97.70
1988;DHT22;12775;46.994;15.498;2022-07-12T06:07:15;19.10;97.70
1988;DHT22;12775;46.994;15.498;2022-07-12T06:09:41;19.20;97.70
1988;DHT22;12775;46.994;15.498;2022-07-12T06:12:08;19.20;98.10
1988;DHT22;12775;46.994;15.498;2022-07-12T06:14:35;19.20;97.70
1988;DHT22;12775;46.994;15.498;2022-07-12T06:17:01;19.20;97.10
1988;DHT22;12775;46.994;15.498;2022-07-12T06:19:28;19.20;97.40
1988;DHT22;12775;46.994;15.498;2022-07-12T06:21:55;19.30;96.80
1988;DHT22;12775;46.994;15.498;2022-07-12T06:24:21;19.30;97.30
1988;DHT22;12775;46.994;15.498;2022-07-12T06:26:48;19.30;97.70
1988;DHT22;12775;46.994;15.498;2022-07-12T06:29:15;19.10;95.70
1988;DHT22;12775;46.994;15.498;2022-07-12T06:31:41;19.20;95.80
1988;DHT22;12775;46.994;15.498;2022-07-12T06:34:08;19.30;95.40
1988;DHT22;12775;46.994;15.498;2022-07-12T06:36:34;19.30;94.30
1988;DHT22;12775;46.994;15.498;2022-07-12T06:39:01;19.40;96.00
1988;DHT22;12775;46.994;15.498;2022-07-12T06:41:27;19.40;95.20
1988;DHT22;12775;46.994;15.498;2022-07-12T06:43:54;19.50;95.00
1988;DHT22;12775;46.994;15.498;2022-07-12T06:46:21;19.50;95.00
1988;DHT22;12775;46.994;15.498;2022-07-12T06:48:47;19.80;99.90
1988;DHT22;12775;46.994;15.498;2022-07-12T06:51:14;19.90;95.20
1988;DHT22;12775;46.994;15.498;2022-07-12T06:53:40;20.10;95.40
1988;DHT22;12775;46.994;15.498;2022-07-12T06:56:07;20.30;96.10
1988;DHT22;12775;46.994;15.498;2022-07-12T06:58:34;20.40;93.00
1988;DHT22;12775;46.994;15.498;2022-07-12T07:01:01;20.80;93.50
1988;DHT22;12775;46.994;15.498;2022-07-12T07:03:28;20.80;93.50
1988;DHT22;12775;46.994;15.498;2022-07-12T07:05:54;21.10;97.90
1988;DHT22;12775;46.994;15.498;2022-07-12T07:08:21;21.40;96.20
1988;DHT22;12775;46.994;15.498;2022-07-12T07:10:48;21.60;95.80
1988;DHT22;12775;46.994;15.498;2022-07-12T07:13:14;21.80;93.70
1988;DHT22;12775;46.994;15.498;2022-07-12T07:15:41;21.90;90.20
1988;DHT22;12775;46.994;15.498;2022-07-12T07:18:08;22.10;90.60
1988;DHT22;12775;46.994;15.498;2022-07-12T07:20:34;22.30;92.60
1988;DHT22;12775;46.994;15.498;2022-07-12T07:23:01;22.50;93.20
1988;DHT22;12775;46.994;15.498;2022-07-12T07:25:28;22.80;92.10
1988;DHT22;12775;46.994;15.498;2022-07-12T07:27:54;23.00;82.40
1988;DHT22;12775;46.994;15.498;2022-07-12T07:30:21;23.00;83.70
1988;DHT22;12775;46.994;15.498;2022-07-12T07:32:53;23.10;82.70
1988;DHT22;12775;46.994;15.498;2022-07-12T07:35:20;23.10;83.20
1988;DHT22;12775;46.994;15.498;2022-07-12T07:37:46;23.20;80.90
1988;DHT22;12775;46.994;15.498;2022-07-12T07:40:13;23.40;86.00
1988;DHT22;12775;46.994;15.498;2022-07-12T07:42:39;23.50;86.20
1988;DHT22;12775;46.994;15.498;2022-07-12T07:45:07;23.70;81.20
1988;DHT22;12775;46.994;15.498;2022-07-12T07:47:42;23.90;84.30
1988;DHT22;12775;46.994;15.498;2022-07-12T07:50:08;24.00;81.00
1988;DHT22;12775;46.994;15.498;2022-07-12T07:52:35;24.20;80.60
1988;DHT22;12775;46.994;15.498;2022-07-12T07:55:01;24.30;80.00
1988;DHT22;12775;46.994;15.498;2022-07-12T07:57:29;24.50;76.50
1988;DHT22;12775;46.994;15.498;2022-07-12T07:59:57;24.70;76.10
1988;DHT22;12775;46.994;15.498;2022-07-12T08:02:23;24.60;75.80
1988;DHT22;12775;46.994;15.498;2022-07-12T08:04:50;24.70;74.00
1988;DHT22;12775;46.994;15.498;2022-07-12T08:07:17;24.70;73.40
1988;DHT22;12775;46.994;15.498;2022-07-12T08:09:44;24.70;82.40
1988;DHT22;12775;46.994;15.498;2022-07-12T08:12:11;24.70;82.40
1988;DHT22;12775;46.994;15.498;2022-07-12T08:14:37;24.70;78.10
1988;DHT22;12775;46.994;15.498;2022-07-12T08:17:04;24.70;76.80
1988;DHT22;12775;46.994;15.498;2022-07-12T08:19:31;24.70;80.60
1988;DHT22;12775;46.994;15.498;2022-07-12T08:21:57;24.70;80.90
1988;DHT22;12775;46.994;15.498;2022-07-12T08:24:24;24.80;79.00
1988;DHT22;12775;46.994;15.498;2022-07-12T08:26:50;24.90;80.40
1988;DHT22;12775;46.994;15.498;2022-07-12T08:29:17;25.00;76.50
1988;DHT22;12775;46.994;15.498;2022-07-12T08:31:43;25.10;76.70
1988;DHT22;12775;46.994;15.498;2022-07-12T08:34:10;25.10;76.70
1988;DHT22;12775;46.994;15.498;2022-07-12T08:36:37;25.20;74.20
1988;DHT22;12775;46.994;15.498;2022-07-12T08:39:03;25.10;69.10
1988;DHT22;12775;46.994;15.498;2022-07-12T08:41:30;24.90;67.80
1988;DHT22;12775;46.994;15.498;2022-07-12T08:43:56;25.00;70.00
1988;DHT22;12775;46.994;15.498;2022-07-12T08:46:23;24.80;71.90
1988;DHT22;12775;46.994;15.498;2022-07-12T08:48:50;24.40;71.60
1988;DHT22;12775;46.994;15.498;2022-07-12T08:51:18;24.10;74.70
1988;DHT22;12775;46.994;15.498;2022-07-12T08:53:44;24.00;74.60
1988;DHT22;12775;46.994;15.498;2022-07-12T08:56:33;24.10;73.40
1988;DHT22;12775;46.994;15.498;2022-07-12T08:59:10;24.10;72.30
1988;DHT22;12775;46.994;15.498;2022-07-12T09:01:39;23.90;72.30
1988;DHT22;12775;46.994;15.498;2022-07-12T09:04:12;23.80;75.30
1988;DHT22;12775;46.994;15.498;2022-07-12T09:06:39;23.40;73.30
1988;DHT22;12775;46.994;15.498;2022-07-12T09:09:05;23.40;73.40
1988;DHT22;12775;46.994;15.498;2022-07-12T09:11:32;23.50;73.40
1988;DHT22;12775;46.994;15.498;2022-07-12T09:13:59;23.40;73.80
1988;DHT22;12775;46.994;15.498;2022-07-12T09:16:25;23.60;76.20
1988;DHT22;12775;46.994;15.498;2022-07-12T09:19:10;23.50;73.50
1988;DHT22;12775;46.994;15.498;2022-07-12T09:21:24;23.60;73.10
1988;DHT22;12775;46.994;15.498;2022-07-12T09:23:51;23.70;73.40
1988;DHT22;12775;46.994;15.498;2022-07-12T09:26:17;23.50;73.50
1988;DHT22;12775;46.994;15.498;2022-07-12T09:28:44;23.40;72.70
1988;DHT22;12775;46.994;15.498;2022-07-12T09:31:10;23.30;74.10
1988;DHT22;12775;46.994;15.498;2022-07-12T09:33:37;23.30;77.70
1988;DHT22;12775;46.994;15.498;2022-07-12T09:36:09;23.60;73.10
1988;DHT22;12775;46.994;15.498;2022-07-12T09:38:38;23.90;72.90
1988;DHT22;12775;46.994;15.498;2022-07-12T09:41:05;23.80;76.20
1988;DHT22;12775;46.994;15.498;2022-07-12T09:43:32;24.20;76.00
1988;DHT22;12775;46.994;15.498;2022-07-12T09:45:59;24.20;76.10
1988;DHT22;12775;46.994;15.498;2022-07-12T09:48:28;24.20;75.10
1988;DHT22;12775;46.994;15.498;2022-07-12T09:50:54;24.30;74.20
1988;DHT22;12775;46.994;15.498;2022-07-12T09:53:21;24.70;77.20
1988;DHT22;12775;46.994;15.498;2022-07-12T09:55:49;24.90;72.10
1988;DHT22;12775;46.994;15.498;2022-07-12T09:58:16;25.00;71.90
1988;DHT22;12775;46.994;15.498;2022-07-12T10:00:42;25.10;72.00
1988;DHT22;12775;46.994;15.498;2022-07-12T10:03:09;24.80;70.40
1988;DHT22;12775;46.994;15.498;2022-07-12T10:05:36;25.00;72.40
1988;DHT22;12775;46.994;15.498;2022-07-12T10:08:02;25.10;74.80
1988;DHT22;12775;46.994;15.498;2022-07-12T10:10:28;25.20;73.80
1988;DHT22;12775;46.994;15.498;2022-07-12T10:12:55;25.40;69.30
1988;DHT22;12775;46.994;15.498;2022-07-12T10:15:22;24.90;70.90
1988;DHT22;12775;46.994;15.498;2022-07-12T10:17:52;25.00;67.00
1988;DHT22;12775;46.994;15.498;2022-07-12T10:20:19;25.00;71.30
1988;DHT22;12775;46.994;15.498;2022-07-12T10:22:45;25.20;67.10
1988;DHT22;12775;46.994;15.498;2022-07-12T10:25:27;25.60;70.20
1988;DHT22;12775;46.994;15.498;2022-07-12T10:27:48;25.70;67.60
1988;DHT22;12775;46.994;15.498;2022-07-12T10:30:15;25.80;68.40
1988;DHT22;12775;46.994;15.498;2022-07-12T10:32:41;25.30;66.60
1988;DHT22;12775;46.994;15.498;2022-07-12T10:35:11;25.60;69.30
1988;DHT22;12775;46.994;15.498;2022-07-12T10:37:34;25.70;68.70
1988;DHT22;12775;46.994;15.498;2022-07-12T10:40:17;26.20;74.10
1988;DHT22;12775;46.994;15.498;2022-07-12T10:45:23;26.10;67.10
1988;DHT22;12775;46.994;15.498;2022-07-12T10:47:54;26.40;67.30
1988;DHT22;12775;46.994;15.498;2022-07-12T10:50:48;26.80;66.80
1988;DHT22;12775;46.994;15.498;2022-07-12T10:52:47;27.10;72.50
1988;DHT22;12775;46.994;15.498;2022-07-12T10:55:16;27.20;65.20
1988;DHT22;12775;46.994;15.498;2022-07-12T10:57:47;27.70;69.90
1988;DHT22;12775;46.994;15.498;2022-07-12T11:00:13;27.70;70.00
1988;DHT22;12775;46.994;15.498;2022-07-12T11:02:40;27.70;63.00
1988;DHT22;12775;46.994;15.498;2022-07-12T11:05:07;27.70;62.40
1988;DHT22;12775;46.994;15.498;2022-07-12T11:07:33;27.80;67.40
1988;DHT22;12775;46.994;15.498;2022-07-12T11:10:01;27.90;63.60
1988;DHT22;12775;46.994;15.498;2022-07-12T11:12:28;28.00;66.30
1988;DHT22;12775;46.994;15.498;2022-07-12T11:14:54;28.20;68.60
1988;DHT22;12775;46.994;15.498;2022-07-12T11:17:29;28.50;61.60
1988;DHT22;12775;46.994;15.498;2022-07-12T11:20:04;28.40;61.50
1988;DHT22;12775;46.994;15.498;2022-07-12T11:22:30;28.50;62.40
1988;DHT22;12775;46.994;15.498;2022-07-12T11:24:57;28.70;62.30
1988;DHT22;12775;46.994;15.498;2022-07-12T11:27:23;28.70;62.00
1988;DHT22;12775;46.994;15.498;2022-07-12T11:29:57;29.00;59.70
1988;DHT22;12775;46.994;15.498;2022-07-12T11:32:32;29.10;65.50
1988;DHT22;12775;46.994;15.498;2022-07-12T11:34:52;29.50;63.00
1988;DHT22;12775;46.994;15.498;2022-07-12T11:37:16;29.60;62.80
1988;DHT22;12775;46.994;15.498;2022-07-12T11:39:43;29.60;60.30
1988;DHT22;12775;46.994;15.498;2022-07-12T11:42:09;29.70;58.20
1988;DHT22;12775;46.994;15.498;2022-07-12T11:44:49;29.70;60.60
1988;DHT22;12775;46.994;15.498;2022-07-12T11:47:16;29.70;59.20
1988;DHT22;12775;46.994;15.498;2022-07-12T11:49:44;29.70;59.20
1988;DHT22;12775;46.994;15.498;2022-07-12T11:52:12;29.80;57.30
1988;DHT22;12775;46.994;15.498;2022-07-12T11:54:38;29.90;59.80
1988;DHT22;12775;46.994;15.498;2022-07-12T11:57:07;30.10;61.30
1988;DHT22;12775;46.994;15.498;2022-07-12T11:59:34;30.20;59.20
1988;DHT22;12775;46.994;15.498;2022-07-12T12:02:05;30.30;60.60
1988;DHT22;12775;46.994;15.498;2022-07-12T12:04:32;30.40;53.60
1988;DHT22;12775;46.994;15.498;2022-07-12T12:06:58;30.00;53.50
1988;DHT22;12775;46.994;15.498;2022-07-12T12:09:25;30.10;54.50
1988;DHT22;12775;46.994;15.498;2022-07-12T12:11:52;30.20;59.20
1988;DHT22;12775;46.994;15.498;2022-07-12T12:14:18;30.20;61.00
1988;DHT22;12775;46.994;15.498;2022-07-12T12:16:45;29.90;54.80
1988;DHT22;12775;46.994;15.498;2022-07-12T12:19:11;29.90;59.20
1988;DHT22;12775;46.994;15.498;2022-07-12T12:21:38;29.80;54.20
1988;DHT22;12775;46.994;15.498;2022-07-12T12:24:09;29.70;54.90
1988;DHT22;12775;46.994;15.498;2022-07-12T12:26:35;29.70;54.90
1988;DHT22;12775;46.994;15.498;2022-07-12T12:29:02;29.50;53.70
1988;DHT22;12775;46.994;15.498;2022-07-12T12:31:29;29.40;54.00
1988;DHT22;12775;46.994;15.498;2022-07-12T12:33:56;29.20;55.90
1988;DHT22;12775;46.994;15.498;2022-07-12T12:36:25;28.60;55.80
1988;DHT22;12775;46.994;15.498;2022-07-12T12:38:51;28.60;55.80
1988;DHT22;12775;46.994;15.498;2022-07-12T12:41:17;28.60;56.50
1988;DHT22;12775;46.994;15.498;2022-07-12T12:43:44;28.40;56.10
1988;DHT22;12775;46.994;15.498;2022-07-12T12:46:10;28.50;54.40
1988;DHT22;12775;46.994;15.498;2022-07-12T12:48:41;28.50;55.30
1988;DHT22;12775;46.994;15.498;2022-07-12T12:51:07;28.20;55.10
1988;DHT22;12775;46.994;15.498;2022-07-12T12:53:34;28.20;55.10
1988;DHT22;12775;46.994;15.498;2022-07-12T12:56:01;28.20;55.10
1988;DHT22;12775;46.994;15.498;2022-07-12T12:58:27;28.10;58.00
1988;DHT22;12775;46.994;15.498;2022-07-12T13:00:54;28.20;58.60
1988;DHT22;12775;46.994;15.498;2022-07-12T13:03:21;28.30;58.10
1988;DHT22;12775;46.994;15.498;2022-07-12T13:05:47;28.30;59.60
1988;DHT22;12775;46.994;15.498;2022-07-12T13:08:14;28.40;59.50
1988;DHT22;12775;46.994;15.498;2022-07-12T13:10:41;28.30;57.20
1988;DHT22;12775;46.994;15.498;2022-07-12T13:13:07;28.40;59.20
1988;DHT22;12775;46.994;15.498;2022-07-12T13:15:33;28.50;58.40
1988;DHT22;12775;46.994;15.498;2022-07-12T13:18:00;28.60;57.20
1988;DHT22;12775;46.994;15.498;2022-07-12T13:20:27;28.60;58.20
1988;DHT22;12775;46.994;15.498;2022-07-12T13:22:53;28.60;56.70
1988;DHT22;12775;46.994;15.498;2022-07-12T13:25:19;28.60;57.80
1988;DHT22;12775;46.994;15.498;2022-07-12T13:27:47;28.60;56.10
1988;DHT22;12775;46.994;15.498;2022-07-12T13:30:15;28.70;55.50
1988;DHT22;12775;46.994;15.498;2022-07-12T13:32:41;28.60;55.50
1988;DHT22;12775;46.994;15.498;2022-07-12T13:35:08;28.70;56.20
1988;DHT22;12775;46.994;15.498;2022-07-12T13:37:35;28.60;55.50
1988;DHT22;12775;46.994;15.498;2022-07-12T13:40:01;28.80;57.30
1988;DHT22;12775;46.994;15.498;2022-07-12T13:42:33;29.00;54.60
1988;DHT22;12775;46.994;15.498;2022-07-12T13:45:00;28.80;52.50
1988;DHT22;12775;46.994;15.498;2022-07-12T13:47:27;28.60;52.70
1988;DHT22;12775;46.994;15.498;2022-07-12T13:49:53;28.50;52.70
1988;DHT22;12775;46.994;15.498;2022-07-12T13:52:20;28.30;53.90
1988;DHT22;12775;46.994;15.498;2022-07-12T13:54:46;28.40;54.60
1988;DHT22;12775;46.994;15.498;2022-07-12T13:57:14;28.30;54.80
1988;DHT22;12775;46.994;15.498;2022-07-12T13:59:41;28.20;54.10
1988;DHT22;12775;46.994;15.498;2022-07-12T14:02:09;28.20;54.70
1988;DHT22;12775;46.994;15.498;2022-07-12T14:04:35;28.20;54.70
1988;DHT22;12775;46.994;15.498;2022-07-12T14:07:02;28.20;55.40
1988;DHT22;12775;46.994;15.498;2022-07-12T14:09:28;28.20;56.60
1988;DHT22;12775;46.994;15.498;2022-07-12T14:11:55;28.10;61.20
1988;DHT22;12775;46.994;15.498;2022-07-12T14:14:22;27.70;65.00
1988;DHT22;12775;46.994;15.498;2022-07-12T14:16:52;27.80;67.00
1988;DHT22;12775;46.994;15.498;2022-07-12T14:19:18;27.90;63.60
1988;DHT22;12775;46.994;15.498;2022-07-12T14:21:45;27.90;64.10
1988;DHT22;12775;46.994;15.498;2022-07-12T14:24:12;27.80;61.20
1988;DHT22;12775;46.994;15.498;2022-07-12T14:26:38;27.70;60.40
1988;DHT22;12775;46.994;15.498;2022-07-12T14:29:05;27.70;62.10
1988;DHT22;12775;46.994;15.498;2022-07-12T14:31:31;27.60;60.20
1988;DHT22;12775;46.994;15.498;2022-07-12T14:33:58;27.60;57.60
1988;DHT22;12775;46.994;15.498;2022-07-12T14:36:24;27.50;58.40
1988;DHT22;12775;46.994;15.498;2022-07-12T14:38:51;27.40;58.00
1988;DHT22;12775;46.994;15.498;2022-07-12T14:41:18;27.20;58.20
1988;DHT22;12775;46.994;15.498;2022-07-12T14:43:44;27.30;57.50
1988;DHT22;12775;46.994;15.498;2022-07-12T14:46:12;26.90;57.10
1988;DHT22;12775;46.994;15.498;2022-07-12T14:48:38;26.90;57.20
1988;DHT22;12775;46.994;15.498;2022-07-12T14:51:05;26.90;57.70
1988;DHT22;12775;46.994;15.498;2022-07-12T14:53:32;26.60;59.30
1988;DHT22;12775;46.994;15.498;2022-07-12T14:56:00;26.50;60.00
1988;DHT22;12775;46.994;15.498;2022-07-12T14:58:27;26.30;58.70
1988;DHT22;12775;46.994;15.498;2022-07-12T15:00:54;26.30;58.30
1988;DHT22;12775;46.994;15.498;2022-07-12T15:03:22;26.20;60.40
1988;DHT22;12775;46.994;15.498;2022-07-12T15:05:49;26.00;60.20
1988;DHT22;12775;46.994;15.498;2022-07-12T15:08:16;26.10;59.30
1988;DHT22;12775;46.994;15.498;2022-07-12T15:10:44;26.10;60.90
1988;DHT22;12775;46.994;15.498;2022-07-12T15:13:11;26.20;59.40
1988;DHT22;12775;46.994;15.498;2022-07-12T15:15:39;26.10;62.60
1988;DHT22;12775;46.994;15.498;2022-07-12T15:18:06;26.30;62.30
1988;DHT22;12775;46.994;15.498;2022-07-12T15:20:34;26.30;61.20
1988;DHT22;12775;46.994;15.498;2022-07-12T15:23:01;26.30;58.50
1988;DHT22;12775;46.994;15.498;2022-07-12T15:25:29;26.30;61.40
1988;DHT22;12775;46.994;15.498;2022-07-12T15:27:57;26.50;60.70
1988;DHT22;12775;46.994;15.498;2022-07-12T15:30:24;26.60;58.60
1988;DHT22;12775;46.994;15.498;2022-07-12T15:32:52;26.70;61.70